Time;durP1;ratioP1;P1;durP2;ratioP2;P2;SDS_P1;SDS_P2;PMS_P1;PMS_P2;Temp;Humidity;BMP_temperature;BMP_pressure;BME280_temperature;BME280_humidity;BME280_pressure;Samples;Min_cycle;Max_cycle;Signal;HPM_P1;HPM_P2
2022/03/21 00:02:07;;;;;;;12.63;9.17;;;;;;;;;;5053232;28;20421;-77
2022/03/21 00:04:33;;;;;;;11.80;9.17;;;;;;;;;;5053382;28;20742;-77
2022/03/21 00:06:59;;;;;;;16.23;9.07;;;;;;;;;;5051786;28;20417;-77
2022/03/21 00:09:25;;;;;;;12.93;8.47;;;;;;;;;;5053507;28;20405;-77
2022/03/21 00:11:53;;;;;;;13.97;9.67;;;;;;;;;;5053201;28;20426;-77
2022/03/21 00:14:19;;;;;;;12.53;8.90;;;;;;;;;;5053348;28;20408;-77
2022/03/21 00:16:46;;;;;;;11.60;8.47;;;;;;;;;;5053172;28;20424;-77
2022/03/21 00:19:12;;;;;;;11.30;7.87;;;;;;;;;;5053421;28;20417;-78
2022/03/21 00:21:38;;;;;;;12.13;8.33;;;;;;;;;;5052988;28;20448;-77
2022/03/21 00:24:05;;;;;;;14.10;8.70;;;;;;;;;;5052534;28;20400;-76
2022/03/21 00:26:31;;;;;;;13.60;9.60;;;;;;;;;;5053282;28;20425;-77
2022/03/21 00:28:57;;;;;;;14.87;8.17;;;;;;;;;;5053281;28;20453;-77
2022/03/21 00:31:23;;;;;;;11.03;7.70;;;;;;;;;;5054047;28;20515;-77
2022/03/21 00:33:49;;;;;;;12.20;8.40;;;;;;;;;;5053410;28;20424;-77
2022/03/21 00:36:16;;;;;;;11.70;8.70;;;;;;;;;;5053446;28;20452;-77
2022/03/21 00:38:43;;;;;;;11.80;9.10;;;;;;;;;;5052955;28;20431;-77
2022/03/21 00:41:09;;;;;;;13.93;8.37;;;;;;;;;;5052804;28;20409;-77
2022/03/21 00:43:35;;;;;;;15.97;9.47;;;;;;;;;;5052565;28;20456;-77
2022/03/21 00:46:02;;;;;;;13.30;9.20;;;;;;;;;;5051865;28;20932;-77
2022/03/21 00:48:29;;;;;;;12.33;8.80;;;;;;;;;;5053303;28;20842;-77
2022/03/21 00:50:55;;;;;;;12.77;9.07;;;;;;;;;;5052931;28;20412;-77
2022/03/21 00:53:22;;;;;;;10.90;8.50;;;;;;;;;;5052903;28;20893;-77
2022/03/21 00:55:49;;;;;;;12.63;8.70;;;;;;;;;;5052959;28;20485;-77
2022/03/21 00:58:15;;;;;;;10.90;8.40;;;;;;;;;;5053021;28;20838;-77
2022/03/21 01:00:42;;;;;;;14.60;8.80;;;;;;;;;;5052746;28;20437;-77
2022/03/21 01:03:09;;;;;;;12.20;8.90;;;;;;;;;;5052699;28;20810;-77
2022/03/21 01:05:35;;;;;;;15.20;10.07;;;;;;;;;;5053267;28;20409;-77
2022/03/21 01:08:04;;;;;;;12.10;9.00;;;;;;;;;;5052860;28;20536;-77
2022/03/21 01:10:30;;;;;;;12.03;8.67;;;;;;;;;;5052847;28;20938;-76
2022/03/21 01:12:57;;;;;;;20.70;10.23;;;;;;;;;;5051224;28;20945;-76
2022/03/21 01:15:25;;;;;;;12.30;7.97;;;;;;;;;;5053237;28;20772;-76
2022/03/21 01:17:51;;;;;;;13.40;9.50;;;;;;;;;;5051322;28;20401;-76
2022/03/21 01:20:18;;;;;;;14.30;9.50;;;;;;;;;;5052133;28;20562;-77
2022/03/21 01:22:44;;;;;;;12.40;8.93;;;;;;;;;;5063493;23;20584;-78
2022/03/21 01:25:11;;;;;;;16.53;10.30;;;;;;;;;;5057825;28;20785;-77
2022/03/21 01:27:38;;;;;;;11.20;8.90;;;;;;;;;;5052374;28;20449;-77
2022/03/21 01:30:05;;;;;;;11.47;8.80;;;;;;;;;;5052467;28;20401;-77
2022/03/21 01:32:32;;;;;;;11.83;8.70;;;;;;;;;;5052108;28;20521;-77
2022/03/21 01:34:58;;;;;;;13.10;8.93;;;;;;;;;;5052798;28;20402;-77
2022/03/21 01:37:24;;;;;;;15.70;10.10;;;;;;;;;;5055395;28;20420;-77
2022/03/21 01:39:50;;;;;;;13.27;9.43;;;;;;;;;;5055990;28;20420;-77
2022/03/21 01:42:16;;;;;;;14.07;10.20;;;;;;;;;;5055809;28;20504;-77
2022/03/21 01:44:43;;;;;;;19.93;9.17;;;;;;;;;;5055810;28;20839;-77
2022/03/21 01:47:09;;;;;;;14.50;9.63;;;;;;;;;;5055669;28;20740;-77
2022/03/21 01:49:35;;;;;;;13.10;8.70;;;;;;;;;;5055435;28;20398;-77
2022/03/21 01:52:01;;;;;;;10.60;7.63;;;;;;;;;;5055411;28;20421;-77
2022/03/21 01:57:12;;;;;;;9.40;7.80;;;;;;;;;;5055652;28;20753;-76
2022/03/21 01:59:38;;;;;;;13.63;9.20;;;;;;;;;;5055656;28;20405;-77
2022/03/21 02:02:06;;;;;;;13.20;9.17;;;;;;;;;;5055721;28;20432;-76
2022/03/21 02:04:32;;;;;;;14.67;9.57;;;;;;;;;;5055544;28;20482;-77
2022/03/21 02:06:59;;;;;;;13.27;10.10;;;;;;;;;;5053915;28;20398;-76
2022/03/21 02:09:25;;;;;;;11.67;8.30;;;;;;;;;;5055156;28;20406;-75
2022/03/21 02:11:52;;;;;;;13.47;9.83;;;;;;;;;;5055356;28;20500;-76
2022/03/21 02:14:18;;;;;;;14.90;10.80;;;;;;;;;;5054923;28;20464;-76
2022/03/21 02:16:44;;;;;;;15.30;10.97;;;;;;;;;;5053856;28;20390;-77
2022/03/21 02:19:21;;;;;;;13.87;10.30;;;;;;;;;;5062319;28;20847;-76
2022/03/21 02:22:07;;;;;;;15.23;10.07;;;;;;;;;;5054884;28;20421;-76
2022/03/21 02:24:35;;;;;;;16.60;10.47;;;;;;;;;;5055367;28;20392;-76
2022/03/21 02:27:02;;;;;;;19.70;10.47;;;;;;;;;;5054669;28;20741;-76
2022/03/21 02:29:29;;;;;;;17.33;12.57;;;;;;;;;;5054683;28;20400;-76
2022/03/21 02:31:55;;;;;;;21.10;9.97;;;;;;;;;;5054853;28;20475;-76
2022/03/21 02:34:23;;;;;;;14.80;10.43;;;;;;;;;;5024306;28;20422;-76
2022/03/21 02:36:50;;;;;;;16.13;11.03;;;;;;;;;;5014750;28;20498;-76
2022/03/21 02:39:17;;;;;;;14.37;10.43;;;;;;;;;;5014790;28;20408;-76
2022/03/21 02:41:43;;;;;;;16.30;10.60;;;;;;;;;;5015248;28;20411;-76
2022/03/21 02:44:09;;;;;;;14.40;10.03;;;;;;;;;;5014669;28;20408;-76
2022/03/21 02:46:37;;;;;;;15.20;10.87;;;;;;;;;;5014514;28;20410;-77
2022/03/21 02:49:03;;;;;;;14.17;9.00;;;;;;;;;;5014928;28;20443;-76
2022/03/21 02:51:31;;;;;;;14.00;9.50;;;;;;;;;;5013256;28;20415;-76
2022/03/21 02:53:57;;;;;;;16.50;10.87;;;;;;;;;;5014699;28;20446;-76
2022/03/21 02:56:23;;;;;;;16.47;11.37;;;;;;;;;;5014454;28;20414;-76
2022/03/21 02:58:49;;;;;;;14.33;10.33;;;;;;;;;;5014436;28;20903;-76
2022/03/21 03:01:19;;;;;;;17.27;11.00;;;;;;;;;;5014664;28;20415;-76
2022/03/21 03:03:45;;;;;;;15.07;10.50;;;;;;;;;;5014584;28;20438;-77
2022/03/21 03:06:12;;;;;;;13.90;10.80;;;;;;;;;;5014267;28;20494;-76
2022/03/21 03:08:38;;;;;;;14.23;9.57;;;;;;;;;;5014171;28;20457;-76
2022/03/21 03:11:05;;;;;;;11.90;8.90;;;;;;;;;;5014251;28;20837;-76
2022/03/21 03:13:31;;;;;;;16.20;10.40;;;;;;;;;;5014119;28;20419;-76
2022/03/21 03:15:57;;;;;;;16.80;9.90;;;;;;;;;;5014035;28;20467;-76
2022/03/21 03:18:23;;;;;;;17.60;10.53;;;;;;;;;;5014116;28;20419;-76
2022/03/21 03:20:51;;;;;;;12.20;9.67;;;;;;;;;;5014281;28;20410;-77
2022/03/21 03:23:21;;;;;;;17.63;11.80;;;;;;;;;;5014141;28;20998;-76
2022/03/21 03:25:49;;;;;;;14.77;10.30;;;;;;;;;;5014805;28;20416;-77
2022/03/21 03:28:15;;;;;;;17.47;11.73;;;;;;;;;;5014191;28;20457;-75
2022/03/21 03:30:41;;;;;;;14.93;10.73;;;;;;;;;;5014059;28;20411;-77
2022/03/21 03:33:11;;;;;;;19.33;11.83;;;;;;;;;;5013670;28;20427;-77
2022/03/21 03:35:37;;;;;;;17.30;11.13;;;;;;;;;;5014303;28;20795;-77
2022/03/21 03:38:04;;;;;;;19.37;11.40;;;;;;;;;;5014025;28;20407;-76
2022/03/21 03:40:30;;;;;;;14.57;10.27;;;;;;;;;;5012622;28;20416;-76
2022/03/21 03:42:56;;;;;;;18.73;10.93;;;;;;;;;;5013912;28;20423;-77
2022/03/21 03:45:22;;;;;;;19.10;11.73;;;;;;;;;;5013759;28;20781;-77
2022/03/21 03:47:48;;;;;;;16.40;11.40;;;;;;;;;;5013641;28;20541;-77
2022/03/21 03:50:14;;;;;;;17.47;11.33;;;;;;;;;;5012568;28;20418;-77
2022/03/21 03:52:46;;;;;;;17.50;11.00;;;;;;;;;;5013703;28;20514;-77
2022/03/21 03:55:12;;;;;;;23.57;11.07;;;;;;;;;;5013847;28;20475;-77
2022/03/21 03:57:38;;;;;;;18.07;11.50;;;;;;;;;;5011891;28;20435;-76
2022/03/21 04:00:05;;;;;;;23.60;11.50;;;;;;;;;;5012949;28;20412;-77
2022/03/21 04:03:44;;;;;;;14.60;11.37;;;;;;;;;;5013628;28;20428;-76
2022/03/21 04:05:17;;;;;;;20.00;11.20;;;;;;;;;;5019432;28;20431;-76
2022/03/21 04:07:43;;;;;;;16.80;11.70;;;;;;;;;;5033207;28;20446;-77
2022/03/21 04:10:09;;;;;;;15.57;10.73;;;;;;;;;;5028008;28;20919;-77
2022/03/21 04:12:36;;;;;;;16.20;11.33;;;;;;;;;;5032991;28;20427;-77
2022/03/21 04:15:03;;;;;;;17.60;11.30;;;;;;;;;;5033475;28;20886;-77
2022/03/21 04:17:29;;;;;;;13.30;10.43;;;;;;;;;;5031768;28;20422;-76
2022/03/21 04:19:55;;;;;;;14.50;8.90;;;;;;;;;;5032971;28;20460;-77
2022/03/21 04:22:21;;;;;;;14.93;9.33;;;;;;;;;;5032973;28;20462;-76
2022/03/21 04:24:47;;;;;;;15.23;10.77;;;;;;;;;;5033267;28;20505;-76
2022/03/21 04:27:13;;;;;;;13.83;9.93;;;;;;;;;;5037724;28;20406;-77
2022/03/21 04:29:39;;;;;;;15.20;11.30;;;;;;;;;;5036557;28;20407;-77
2022/03/21 04:32:05;;;;;;;17.23;11.27;;;;;;;;;;5033186;28;20458;-77
2022/03/21 04:34:31;;;;;;;21.17;10.30;;;;;;;;;;5033121;28;20398;-76
2022/03/21 04:36:58;;;;;;;16.07;9.93;;;;;;;;;;5033050;28;20456;-77
2022/03/21 04:39:24;;;;;;;17.97;12.03;;;;;;;;;;5032953;28;20418;-77
2022/03/21 04:41:50;;;;;;;19.20;12.30;;;;;;;;;;5032665;28;20976;-77
2022/03/21 04:44:16;;;;;;;19.63;10.60;;;;;;;;;;5032818;28;20407;-76
2022/03/21 04:46:42;;;;;;;19.70;11.40;;;;;;;;;;5032981;28;20564;-76
2022/03/21 04:49:08;;;;;;;16.93;9.70;;;;;;;;;;5032588;28;20949;-76
2022/03/21 04:51:34;;;;;;;16.67;11.23;;;;;;;;;;5027873;28;20434;-76
2022/03/21 04:54:00;;;;;;;13.73;9.90;;;;;;;;;;5032525;28;20835;-77
2022/03/21 04:56:26;;;;;;;15.47;9.93;;;;;;;;;;5035254;28;20425;-77
2022/03/21 04:58:52;;;;;;;20.60;12.30;;;;;;;;;;5025532;28;20454;-77
2022/03/21 05:01:19;;;;;;;17.30;10.20;;;;;;;;;;5011638;28;20407;-76
2022/03/21 05:03:45;;;;;;;14.53;9.70;;;;;;;;;;5012930;28;20458;-76
2022/03/21 05:06:12;;;;;;;16.67;10.97;;;;;;;;;;5012894;28;20831;-76
2022/03/21 05:08:38;;;;;;;16.77;10.87;;;;;;;;;;5012918;28;20446;-76
2022/03/21 05:11:04;;;;;;;15.13;10.27;;;;;;;;;;5015708;28;20451;-76
2022/03/21 05:13:30;;;;;;;18.70;11.90;;;;;;;;;;5016710;28;20431;-76
2022/03/21 05:15:57;;;;;;;18.00;10.40;;;;;;;;;;5016511;28;20812;-76
2022/03/21 05:18:23;;;;;;;15.60;10.83;;;;;;;;;;5017010;28;20407;-76
2022/03/21 05:20:49;;;;;;;13.50;10.67;;;;;;;;;;5016562;28;20510;-76
2022/03/21 05:31:28;;;;;;;17.43;11.00;;;;;;;;;;5016518;28;20880;-76
2022/03/21 05:36:39;;;;;;;19.90;11.67;;;;;;;;;;5016732;28;20478;-76
2022/03/21 05:39:05;;;;;;;14.07;11.27;;;;;;;;;;5016435;28;20490;-76
2022/03/21 05:41:31;;;;;;;16.00;10.57;;;;;;;;;;5016164;28;20403;-76
2022/03/21 05:43:57;;;;;;;18.87;13.00;;;;;;;;;;5016096;28;20499;-76
2022/03/21 05:46:23;;;;;;;17.33;10.70;;;;;;;;;;5016133;28;20454;-76
2022/03/21 05:48:59;;;;;;;13.80;10.70;;;;;;;;;;5016270;28;20521;-76
2022/03/21 05:51:28;;;;;;;16.00;11.10;;;;;;;;;;5014794;28;20442;-76
2022/03/21 05:53:58;;;;;;;19.03;11.60;;;;;;;;;;5016435;28;20415;-76
2022/03/21 05:56:25;;;;;;;23.77;10.20;;;;;;;;;;5016288;28;20418;-76
2022/03/21 05:58:55;;;;;;;17.27;10.77;;;;;;;;;;5014613;28;20793;-76
2022/03/21 06:01:22;;;;;;;17.80;11.73;;;;;;;;;;5016209;28;20491;-75
2022/03/21 06:03:57;;;;;;;18.27;10.73;;;;;;;;;;5016235;28;20745;-75
2022/03/21 06:06:24;;;;;;;19.03;11.63;;;;;;;;;;5016203;28;20804;-75
2022/03/21 06:08:51;;;;;;;19.47;11.30;;;;;;;;;;5028424;28;20481;-76
2022/03/21 06:11:17;;;;;;;16.73;10.90;;;;;;;;;;5016061;28;20434;-77
2022/03/21 06:13:43;;;;;;;16.80;10.37;;;;;;;;;;5015201;28;20522;-76
2022/03/21 06:16:10;;;;;;;18.33;10.80;;;;;;;;;;5015781;28;20427;-76
2022/03/21 06:18:37;;;;;;;16.10;11.10;;;;;;;;;;5015896;28;20422;-75
2022/03/21 06:21:04;;;;;;;15.70;10.47;;;;;;;;;;5016173;28;20419;-76
2022/03/21 06:23:30;;;;;;;15.87;10.70;;;;;;;;;;5014820;28;20866;-76
2022/03/21 06:25:58;;;;;;;14.53;10.80;;;;;;;;;;5015430;28;20407;-75
2022/03/21 06:28:24;;;;;;;18.93;12.60;;;;;;;;;;5015378;28;20461;-77
2022/03/21 06:30:51;;;;;;;19.43;10.60;;;;;;;;;;5017566;28;20473;-77
2022/03/21 06:33:23;;;;;;;17.00;11.90;;;;;;;;;;5034827;28;20434;-77
2022/03/21 06:35:49;;;;;;;19.67;12.20;;;;;;;;;;5016120;28;20415;-77
2022/03/21 06:38:15;;;;;;;18.97;11.47;;;;;;;;;;5015575;28;20439;-77
2022/03/21 06:40:44;;;;;;;22.40;11.30;;;;;;;;;;5023082;28;20903;-77
2022/03/21 06:43:11;;;;;;;15.20;10.43;;;;;;;;;;5023798;28;20451;-76
2022/03/21 06:45:37;;;;;;;12.43;9.93;;;;;;;;;;5035328;28;20410;-76
2022/03/21 06:48:03;;;;;;;15.93;11.00;;;;;;;;;;5034134;28;20449;-77
2022/03/21 06:50:29;;;;;;;16.80;11.17;;;;;;;;;;5035283;28;20513;-77
2022/03/21 06:52:55;;;;;;;16.87;11.17;;;;;;;;;;5035522;28;20434;-77
2022/03/21 06:55:21;;;;;;;14.70;10.20;;;;;;;;;;5035200;28;20403;-78
2022/03/21 06:57:48;;;;;;;22.33;11.97;;;;;;;;;;5035137;28;20441;-77
2022/03/21 07:00:14;;;;;;;15.83;11.60;;;;;;;;;;5032321;28;20461;-76
2022/03/21 07:02:40;;;;;;;17.73;10.60;;;;;;;;;;5014647;28;20453;-76
2022/03/21 07:05:07;;;;;;;18.13;12.05;;;;;;;;;;5015129;28;20407;-76
2022/03/21 07:07:34;;;;;;;19.53;12.27;;;;;;;;;;5035033;28;20222;-78
2022/03/21 07:10:00;;;;;;;15.37;10.57;;;;;;;;;;5034549;28;20403;-77
2022/03/21 07:12:26;;;;;;;15.10;11.03;;;;;;;;;;5034566;28;20410;-77
2022/03/21 07:14:52;;;;;;;14.93;10.60;;;;;;;;;;5034522;28;20398;-77
2022/03/21 07:17:19;;;;;;;18.30;11.80;;;;;;;;;;5026429;28;20407;-77
2022/03/21 07:19:46;;;;;;;15.20;11.23;;;;;;;;;;5026429;28;20494;-77
2022/03/21 07:22:12;;;;;;;16.20;11.30;;;;;;;;;;5012908;28;20534;-77
2022/03/21 07:24:38;;;;;;;15.95;12.32;;;;;;;;;;5018649;28;20417;-77
2022/03/21 07:27:05;;;;;;;16.10;10.75;;;;;;;;;;5032518;28;20421;-77
2022/03/21 07:29:31;;;;;;;20.93;12.17;;;;;;;;;;5046866;23;20528;-74
2022/03/21 07:31:57;;;;;;;17.60;13.10;;;;;;;;;;5051967;28;20430;-75
2022/03/21 07:34:24;;;;;;;15.83;12.07;;;;;;;;;;5044205;28;20491;-75
2022/03/21 07:36:50;;;;;;;19.20;12.53;;;;;;;;;;5052115;28;20418;-74
2022/03/21 07:39:17;;;;;;;17.43;11.83;;;;;;;;;;5053509;28;20531;-75
2022/03/21 07:41:43;;;;;;;18.20;12.43;;;;;;;;;;5049554;28;20456;-76
2022/03/21 07:44:09;;;;;;;15.50;11.73;;;;;;;;;;5019594;28;20572;-74
2022/03/21 07:49:20;;;;;;;15.07;10.93;;;;;;;;;;5026513;28;20532;-74
2022/03/21 07:51:46;;;;;;;29.83;12.73;;;;;;;;;;5027092;28;20411;-76
2022/03/21 07:54:13;;;;;;;18.10;12.67;;;;;;;;;;5031227;28;20419;-75
2022/03/21 07:56:40;;;;;;;16.03;12.37;;;;;;;;;;5031474;28;21030;-75
2022/03/21 07:59:06;;;;;;;19.20;12.43;;;;;;;;;;5025472;28;20449;-76
2022/03/21 08:01:33;;;;;;;17.57;12.10;;;;;;;;;;5026536;28;20971;-75
2022/03/21 08:04:00;;;;;;;18.53;11.60;;;;;;;;;;5028342;28;20426;-75
2022/03/21 08:06:27;;;;;;;20.27;10.93;;;;;;;;;;5024251;28;20418;-75
2022/03/21 08:08:57;;;;;;;19.93;12.70;;;;;;;;;;5032569;28;20454;-75
2022/03/21 08:11:23;;;;;;;15.53;10.83;;;;;;;;;;5031337;28;20438;-74
2022/03/21 08:13:49;;;;;;;17.77;13.10;;;;;;;;;;5025054;28;20423;-75
2022/03/21 08:16:20;;;;;;;17.93;11.47;;;;;;;;;;5029113;28;20458;-76
2022/03/21 08:18:52;;;;;;;16.90;11.80;;;;;;;;;;5026751;28;20433;-74
2022/03/21 08:21:20;;;;;;;19.33;12.50;;;;;;;;;;5024578;28;20937;-74
2022/03/21 08:23:46;;;;;;;18.17;12.70;;;;;;;;;;5026110;28;20440;-75
2022/03/21 08:26:13;;;;;;;15.97;11.40;;;;;;;;;;5028880;28;20456;-75
2022/03/21 08:28:39;;;;;;;15.27;11.20;;;;;;;;;;5029505;28;20973;-75
2022/03/21 08:31:05;;;;;;;15.90;12.07;;;;;;;;;;5026565;28;20541;-76
2022/03/21 08:33:31;;;;;;;16.17;11.67;;;;;;;;;;5029432;28;20494;-76
2022/03/21 08:35:57;;;;;;;20.43;13.07;;;;;;;;;;5020914;28;20937;-75
2022/03/21 08:38:23;;;;;;;15.23;10.73;;;;;;;;;;5026114;28;20463;-76
2022/03/21 08:40:49;;;;;;;17.20;11.93;;;;;;;;;;5027343;28;20442;-75
2022/03/21 08:43:15;;;;;;;14.17;11.93;;;;;;;;;;5025401;28;20501;-76
2022/03/21 08:45:41;;;;;;;16.73;11.53;;;;;;;;;;5032293;28;20414;-75
2022/03/21 08:48:08;;;;;;;26.77;12.97;;;;;;;;;;5032142;28;20462;-75
2022/03/21 08:50:34;;;;;;;16.70;12.20;;;;;;;;;;5033985;28;20618;-75
2022/03/21 08:53:01;;;;;;;19.73;12.70;;;;;;;;;;5029792;28;20472;-76
2022/03/21 08:55:28;;;;;;;18.03;13.00;;;;;;;;;;5035148;28;20425;-75
2022/03/21 08:57:54;;;;;;;18.07;12.03;;;;;;;;;;5034190;28;20484;-76
2022/03/21 09:00:20;;;;;;;18.10;13.50;;;;;;;;;;5029132;28;20450;-75
2022/03/21 09:02:48;;;;;;;16.33;11.63;;;;;;;;;;5030729;28;20879;-75
2022/03/21 09:05:14;;;;;;;17.83;11.73;;;;;;;;;;5027368;28;20415;-76
2022/03/21 09:07:41;;;;;;;18.13;12.00;;;;;;;;;;5030056;28;20464;-76
2022/03/21 09:10:10;;;;;;;17.37;11.20;;;;;;;;;;5032376;28;20434;-75
2022/03/21 09:12:36;;;;;;;14.30;11.43;;;;;;;;;;5032264;28;20430;-75
2022/03/21 09:15:02;;;;;;;16.97;12.10;;;;;;;;;;5024303;28;20422;-75
2022/03/21 09:17:28;;;;;;;14.20;11.27;;;;;;;;;;5033368;28;20426;-76
2022/03/21 09:19:54;;;;;;;14.70;11.10;;;;;;;;;;5033889;28;20484;-77
2022/03/21 09:22:20;;;;;;;14.60;11.53;;;;;;;;;;5033483;28;20414;-76
2022/03/21 09:24:46;;;;;;;17.67;12.40;;;;;;;;;;5034272;28;20410;-76
2022/03/21 09:27:12;;;;;;;18.80;13.43;;;;;;;;;;5034022;28;20763;-78
2022/03/21 09:29:39;;;;;;;20.40;11.70;;;;;;;;;;5025648;28;20462;-76
2022/03/21 09:32:06;;;;;;;16.60;12.40;;;;;;;;;;5029193;28;20435;-77
2022/03/21 09:34:33;;;;;;;19.40;11.70;;;;;;;;;;5027941;28;20431;-76
2022/03/21 09:37:00;;;;;;;25.30;13.13;;;;;;;;;;5028091;28;21391;-76
2022/03/21 09:39:26;;;;;;;18.07;11.37;;;;;;;;;;5024519;28;20880;-76
2022/03/21 09:41:52;;;;;;;18.50;13.00;;;;;;;;;;5024843;28;20493;-75
2022/03/21 09:44:19;;;;;;;15.07;10.60;;;;;;;;;;5024931;28;20507;-75
2022/03/21 09:46:47;;;;;;;18.50;12.57;;;;;;;;;;5028985;28;20424;-75
2022/03/21 09:49:17;;;;;;;19.63;13.10;;;;;;;;;;5026731;28;20203;-76
2022/03/21 09:51:43;;;;;;;18.80;11.93;;;;;;;;;;5032935;28;20415;-74
2022/03/21 09:54:12;;;;;;;20.70;12.43;;;;;;;;;;5032294;28;20419;-76
2022/03/21 09:56:38;;;;;;;16.10;11.40;;;;;;;;;;5023816;28;20434;-75
2022/03/21 09:59:05;;;;;;;16.53;11.47;;;;;;;;;;5032069;28;20930;-75
2022/03/21 10:01:32;;;;;;;17.67;11.60;;;;;;;;;;5027367;28;20453;-75
2022/03/21 10:03:59;;;;;;;19.17;12.43;;;;;;;;;;5033410;28;20782;-75
2022/03/21 10:06:27;;;;;;;18.50;13.23;;;;;;;;;;5024827;28;20415;-75
2022/03/21 10:09:12;;;;;;;17.10;12.23;;;;;;;;;;5033356;28;20450;-76
2022/03/21 10:11:39;;;;;;;19.73;10.67;;;;;;;;;;5031763;28;20434;-75
2022/03/21 10:14:24;;;;;;;18.10;13.20;;;;;;;;;;5034120;28;20505;-75
2022/03/21 10:16:55;;;;;;;16.20;11.67;;;;;;;;;;5029619;28;20402;-77
2022/03/21 10:19:21;;;;;;;17.30;11.97;;;;;;;;;;5029251;28;20438;-76
2022/03/21 10:22:01;;;;;;;20.80;12.50;;;;;;;;;;5030932;28;20479;-73
2022/03/21 10:24:27;;;;;;;21.47;13.83;;;;;;;;;;5017736;28;20450;-75
2022/03/21 10:26:54;;;;;;;23.27;13.40;;;;;;;;;;5029365;28;20410;-74
2022/03/21 10:29:20;;;;;;;16.00;13.93;;;;;;;;;;5027318;28;20489;-73
2022/03/21 10:31:48;;;;;;;16.33;13.50;;;;;;;;;;5026789;28;20929;-75
2022/03/21 10:34:17;;;;;;;22.70;15.13;;;;;;;;;;5032242;28;20402;-75
2022/03/21 10:37:00;;;;;;;24.70;14.10;;;;;;;;;;5030052;28;20524;-75
2022/03/21 10:39:27;;;;;;;19.73;15.40;;;;;;;;;;5027879;28;20493;-75
2022/03/21 10:42:06;;;;;;;24.53;15.00;;;;;;;;;;5028173;28;20472;-75
2022/03/21 10:44:33;;;;;;;24.13;15.67;;;;;;;;;;5031153;28;20422;-75
2022/03/21 10:47:03;;;;;;;22.60;14.33;;;;;;;;;;5029438;28;20949;-76
2022/03/21 10:49:33;;;;;;;19.63;14.20;;;;;;;;;;5032888;28;20545;-75
2022/03/21 10:52:00;;;;;;;20.07;13.47;;;;;;;;;;5028120;28;20462;-76
2022/03/21 10:54:35;;;;;;;17.13;13.30;;;;;;;;;;5024290;28;20422;-75
2022/03/21 10:57:02;;;;;;;31.63;14.17;;;;;;;;;;5033734;28;20425;-75
2022/03/21 10:59:28;;;;;;;17.90;13.47;;;;;;;;;;5032656;28;20968;-76
2022/03/21 11:02:10;;;;;;;22.53;13.00;;;;;;;;;;5032939;28;20495;-75
2022/03/21 11:04:37;;;;;;;18.30;13.70;;;;;;;;;;5018972;28;20472;-76
2022/03/21 11:07:04;;;;;;;19.70;13.47;;;;;;;;;;5026386;28;20910;-76
2022/03/21 11:09:31;;;;;;;18.00;14.13;;;;;;;;;;5027332;28;20474;-75
2022/03/21 11:11:59;;;;;;;17.90;12.90;;;;;;;;;;5032467;28;20433;-76
2022/03/21 11:14:25;;;;;;;16.27;13.10;;;;;;;;;;5028510;28;20473;-77
2022/03/21 11:16:53;;;;;;;18.30;12.80;;;;;;;;;;5031205;28;20449;-75
2022/03/21 11:19:19;;;;;;;17.10;13.63;;;;;;;;;;5025177;28;20414;-76
2022/03/21 11:21:46;;;;;;;18.57;13.30;;;;;;;;;;5029683;28;20922;-74
2022/03/21 11:24:12;;;;;;;23.80;14.60;;;;;;;;;;5029110;28;20422;-76
2022/03/21 11:26:47;;;;;;;17.00;13.97;;;;;;;;;;5040780;28;20454;-75
2022/03/21 11:29:28;;;;;;;20.80;13.77;;;;;;;;;;5019235;28;20453;-76
2022/03/21 11:32:03;;;;;;;16.53;13.57;;;;;;;;;;5026317;28;20957;-76
2022/03/21 11:34:35;;;;;;;16.93;13.73;;;;;;;;;;5029461;28;20432;-75
2022/03/21 11:37:01;;;;;;;18.03;12.93;;;;;;;;;;5029700;28;20530;-75
2022/03/21 11:39:30;;;;;;;17.63;12.87;;;;;;;;;;5031181;28;20450;-75
2022/03/21 11:42:00;;;;;;;18.90;13.93;;;;;;;;;;5036013;28;20418;-75
2022/03/21 11:44:26;;;;;;;16.67;12.70;;;;;;;;;;5026175;28;20444;-75
2022/03/21 11:46:52;;;;;;;18.43;12.97;;;;;;;;;;5032514;28;20925;-75
2022/03/21 11:49:18;;;;;;;15.67;12.30;;;;;;;;;;5031849;28;20532;-75
2022/03/21 11:51:45;;;;;;;18.47;13.63;;;;;;;;;;5032341;28;20414;-75
2022/03/21 11:54:29;;;;;;;17.63;13.03;;;;;;;;;;5031697;28;20418;-74
2022/03/21 11:56:59;;;;;;;16.43;12.50;;;;;;;;;;5028695;28;20942;-75
2022/03/21 11:59:39;;;;;;;17.90;12.60;;;;;;;;;;5028473;28;20430;-75
2022/03/21 12:02:11;;;;;;;15.90;12.20;;;;;;;;;;5030790;28;20584;-74
2022/03/21 12:04:37;;;;;;;14.90;11.77;;;;;;;;;;5031152;28;20934;-74
2022/03/21 12:07:12;;;;;;;15.10;12.57;;;;;;;;;;5031971;28;20930;-75
2022/03/21 12:09:40;;;;;;;16.40;12.30;;;;;;;;;;5028213;28;21308;-74
2022/03/21 12:12:06;;;;;;;19.40;13.50;;;;;;;;;;5029250;28;20945;-75
2022/03/21 12:14:40;;;;;;;15.57;12.27;;;;;;;;;;5026290;28;21880;-75
2022/03/21 12:17:06;;;;;;;16.10;13.13;;;;;;;;;;5031066;28;20540;-75
2022/03/21 12:20:02;;;;;;;23.67;12.73;;;;;;;;;;5028611;28;20563;-75
2022/03/21 12:22:34;;;;;;;14.93;11.63;;;;;;;;;;5025743;28;20483;-74
2022/03/21 12:25:01;;;;;;;15.87;12.30;;;;;;;;;;5026805;28;20449;-74
2022/03/21 12:27:33;;;;;;;16.37;12.27;;;;;;;;;;5019540;28;20411;-75
2022/03/21 12:30:18;;;;;;;21.43;11.57;;;;;;;;;;5028876;28;20502;-75
2022/03/21 12:32:53;;;;;;;16.30;10.53;;;;;;;;;;5030467;28;20463;-75
2022/03/21 12:35:31;;;;;;;17.60;11.00;;;;;;;;;;5031088;28;20412;-74
2022/03/21 12:38:24;;;;;;;13.77;11.90;;;;;;;;;;5024092;28;20800;-75
2022/03/21 12:41:02;;;;;;;20.83;11.77;;;;;;;;;;5025187;28;20440;-75
2022/03/21 12:43:43;;;;;;;12.37;10.40;;;;;;;;;;5017154;28;20422;-76
2022/03/21 12:46:12;;;;;;;16.20;11.63;;;;;;;;;;5025477;28;20489;-76
2022/03/21 12:48:42;;;;;;;14.93;11.47;;;;;;;;;;5027232;28;20458;-76
2022/03/21 12:51:09;;;;;;;15.40;12.10;;;;;;;;;;5024530;28;20456;-75
2022/03/21 12:53:45;;;;;;;17.13;11.93;;;;;;;;;;5031862;28;20489;-76
2022/03/21 12:56:12;;;;;;;13.13;10.73;;;;;;;;;;5023888;28;20476;-75
2022/03/21 12:58:42;;;;;;;14.20;11.63;;;;;;;;;;5025619;28;20438;-75
2022/03/21 13:01:08;;;;;;;16.93;10.80;;;;;;;;;;5022120;28;20465;-75
2022/03/21 13:03:34;;;;;;;16.00;11.10;;;;;;;;;;5025162;28;20997;-75
2022/03/21 13:11:32;;;;;;;14.90;11.13;;;;;;;;;;5020603;28;20489;-76
2022/03/21 13:14:06;;;;;;;13.97;11.00;;;;;;;;;;5022838;28;20517;-76
2022/03/21 13:16:38;;;;;;;16.83;12.07;;;;;;;;;;5022952;28;20439;-77
2022/03/21 13:19:08;;;;;;;14.10;11.37;;;;;;;;;;5022627;28;20304;-76
2022/03/21 13:21:35;;;;;;;13.57;10.43;;;;;;;;;;5025345;28;20430;-75
2022/03/21 13:24:01;;;;;;;20.47;10.40;;;;;;;;;;5020946;28;20433;-75
2022/03/21 13:26:27;;;;;;;11.97;10.67;;;;;;;;;;5021426;28;20430;-76
2022/03/21 13:28:54;;;;;;;14.50;10.80;;;;;;;;;;5038198;28;20459;-74
2022/03/21 13:31:26;;;;;;;15.43;11.03;;;;;;;;;;5026797;28;20469;-75
2022/03/21 13:33:58;;;;;;;15.13;11.03;;;;;;;;;;5025724;28;20438;-73
2022/03/21 13:36:25;;;;;;;15.30;11.03;;;;;;;;;;5024907;28;20437;-74
2022/03/21 13:39:11;;;;;;;14.83;10.93;;;;;;;;;;5027330;28;20779;-74
2022/03/21 13:42:10;;;;;;;16.53;12.30;;;;;;;;;;5020479;28;20542;-75
2022/03/21 13:44:39;;;;;;;16.27;11.27;;;;;;;;;;4992211;28;20438;-75
2022/03/21 13:47:11;;;;;;;19.37;11.20;;;;;;;;;;5024346;28;20438;-74
2022/03/21 13:49:43;;;;;;;16.00;12.23;;;;;;;;;;5022377;28;20560;-75
2022/03/21 13:52:09;;;;;;;12.97;11.17;;;;;;;;;;5026475;28;20515;-75
2022/03/21 13:54:52;;;;;;;14.63;10.33;;;;;;;;;;5038039;28;20798;-75
2022/03/21 13:57:18;;;;;;;15.90;11.37;;;;;;;;;;5020761;28;20563;-75
2022/03/21 13:59:58;;;;;;;17.77;12.60;;;;;;;;;;5028459;28;20456;-76
2022/03/21 14:02:24;;;;;;;15.00;10.97;;;;;;;;;;5027651;28;20626;-76
2022/03/21 14:04:53;;;;;;;16.20;11.50;;;;;;;;;;5029671;28;20499;-77
2022/03/21 14:07:19;;;;;;;15.97;11.23;;;;;;;;;;5028141;28;20959;-76
2022/03/21 14:09:51;;;;;;;17.33;11.87;;;;;;;;;;5029809;28;20894;-76
2022/03/21 14:12:17;;;;;;;16.10;12.50;;;;;;;;;;5027805;28;20434;-76
2022/03/21 14:14:44;;;;;;;16.63;10.60;;;;;;;;;;5023399;28;21008;-75
2022/03/21 14:17:10;;;;;;;16.27;11.60;;;;;;;;;;5028248;28;20418;-76
2022/03/21 14:19:37;;;;;;;13.43;10.10;;;;;;;;;;5027706;28;20470;-75
2022/03/21 14:22:03;;;;;;;13.47;10.87;;;;;;;;;;5031221;28;20849;-76
2022/03/21 14:24:29;;;;;;;17.63;12.30;;;;;;;;;;5030350;28;20434;-75
2022/03/21 14:26:55;;;;;;;18.23;11.87;;;;;;;;;;5028963;28;20803;-76
2022/03/21 14:29:22;;;;;;;16.87;11.57;;;;;;;;;;5025079;28;20554;-76
2022/03/21 14:31:49;;;;;;;14.47;10.60;;;;;;;;;;5031344;28;20423;-75
2022/03/21 14:34:15;;;;;;;16.73;11.20;;;;;;;;;;5030980;28;20448;-75
2022/03/21 14:36:44;;;;;;;21.37;11.60;;;;;;;;;;5026887;28;20458;-77
2022/03/21 14:39:10;;;;;;;15.87;11.37;;;;;;;;;;5026645;28;20426;-75
2022/03/21 14:41:37;;;;;;;15.20;11.43;;;;;;;;;;5027853;28;20775;-76
2022/03/21 14:44:03;;;;;;;16.37;11.33;;;;;;;;;;5025836;28;20831;-76
2022/03/21 14:46:29;;;;;;;14.73;11.63;;;;;;;;;;5030175;28;20437;-75